createdAt,value
2022-08-04T00:02:48.047Z,100489.22
2022-08-04T00:05:46.499Z,100489.09
2022-08-04T00:08:38.870Z,100488.66
2022-08-04T00:11:09.097Z,100484.66
2022-08-04T00:14:03.552Z,100478.78
2022-08-04T00:16:37.694Z,100493.94
2022-08-04T00:19:13.033Z,100493.75
2022-08-04T00:21:51.591Z,100494.81
2022-08-04T00:24:22.166Z,100491.00
2022-08-04T00:26:53.528Z,100495.81
2022-08-04T00:29:22.701Z,100492.88
2022-08-04T00:31:55.870Z,100472.88
2022-08-04T00:34:29.463Z,100474.19
2022-08-04T00:36:58.712Z,100485.75
2022-08-04T00:39:26.614Z,100468.28
2022-08-04T00:42:13.877Z,100483.41
2022-08-04T00:45:07.301Z,100488.06
2022-08-04T00:48:19.335Z,100482.53
2022-08-04T00:51:04.052Z,100461.72
2022-08-04T00:53:54.321Z,100463.66
2022-08-04T00:56:50.301Z,100472.47
2022-08-04T00:59:41.188Z,100442.84
2022-08-04T01:02:31.515Z,100474.78
2022-08-04T01:05:37.554Z,100469.31
2022-08-04T01:08:23.647Z,100477.94
2022-08-04T01:11:21.190Z,100474.13
2022-08-04T01:14:08.616Z,100461.13
2022-08-04T01:16:48.362Z,100477.53
2022-08-04T01:19:43.182Z,100475.44
2022-08-04T01:22:31.565Z,100483.41
2022-08-04T01:25:46.642Z,100482.19
2022-08-04T01:28:25.768Z,100485.09
2022-08-04T01:30:58.389Z,100492.06
2022-08-04T01:33:30.432Z,100477.97
2022-08-04T01:36:04.878Z,100468.34
2022-08-04T01:38:37.081Z,100467.13
2022-08-04T01:41:13.867Z,100464.56
2022-08-04T01:43:44.390Z,100466.66
2022-08-04T01:46:14.918Z,100459.13
2022-08-04T01:48:48.015Z,100477.66
2022-08-04T01:51:15.461Z,100475.97
2022-08-04T01:53:44.200Z,100459.56
2022-08-04T01:56:12.423Z,100468.19
2022-08-04T01:58:41.006Z,100478.94
2022-08-04T02:01:11.553Z,100464.41
2022-08-04T02:04:21.228Z,100465.03
2022-08-04T02:06:58.256Z,100453.66
2022-08-04T02:09:55.004Z,100468.38
2022-08-04T02:12:43.637Z,100462.06
2022-08-04T02:15:51.847Z,100464.63
2022-08-04T02:18:25.030Z,100445.47
2022-08-04T02:21:02.754Z,100448.41
2022-08-04T02:23:37.238Z,100459.56
2022-08-04T02:26:28.249Z,100463.75
2022-08-04T02:29:19.485Z,100460.41
2022-08-04T02:32:00.510Z,100447.59
2022-08-04T02:34:36.629Z,100456.63
2022-08-04T02:37:04.967Z,100436.44
2022-08-04T02:39:48.015Z,100440.63
2022-08-04T02:42:17.409Z,100428.00
2022-08-04T02:44:58.143Z,100432.22
2022-08-04T02:48:23.647Z,100442.28
2022-08-04T02:50:28.583Z,100453.84
2022-08-04T02:53:00.723Z,100456.81
2022-08-04T02:55:29.942Z,100440.31
2022-08-04T02:57:59.536Z,100448.13
2022-08-04T03:00:26.846Z,100449.41
2022-08-04T03:03:09.473Z,100452.31
2022-08-04T03:06:01.285Z,100447.31
2022-08-04T03:08:54.168Z,100448.53
2022-08-04T03:11:39.927Z,100438.44
2022-08-04T03:14:45.942Z,100449.38
2022-08-04T03:17:28.277Z,100443.06
2022-08-04T03:20:10.603Z,100449.38
2022-08-04T03:23:13.601Z,100449.19
2022-08-04T03:25:56.523Z,100439.91
2022-08-04T03:28:48.902Z,100454.44
2022-08-04T03:31:54.496Z,100457.78
2022-08-04T03:34:58.579Z,100459.00
2022-08-04T03:37:47.450Z,100457.31
2022-08-04T03:40:36.533Z,100460.72
2022-08-04T03:43:56.836Z,100462.25
2022-08-04T03:46:24.442Z,100459.53
2022-08-04T03:49:10.563Z,100463.72
2022-08-04T03:52:14.562Z,100464.38
2022-08-04T03:55:03.383Z,100468.38
2022-08-04T03:58:00.732Z,100453.22
2022-08-04T04:00:37.050Z,100449.66
2022-08-04T04:03:29.290Z,100467.34
2022-08-04T04:06:23.881Z,100482.47
2022-08-04T04:09:28.752Z,100478.28
2022-08-04T04:12:43.215Z,100480.16
2022-08-04T04:15:20.895Z,100476.09
2022-08-04T04:18:31.345Z,100476.53
2022-08-04T04:21:19.985Z,100479.56
2022-08-04T04:24:24.767Z,100477.31
2022-08-04T04:27:22.956Z,100475.22
2022-08-04T04:29:50.591Z,100483.25
2022-08-04T04:32:59.802Z,100480.88
2022-08-04T04:35:50.731Z,100478.25
2022-08-04T04:38:49.895Z,100465.69
2022-08-04T04:41:48.143Z,100479.16
2022-08-04T04:44:28.734Z,100461.63
2022-08-04T04:47:00.857Z,100462.19
2022-08-04T04:49:46.719Z,100471.13
2022-08-04T04:52:26.744Z,100473.50
2022-08-04T04:55:24.973Z,100475.66
2022-08-04T04:57:56.710Z,100464.03
2022-08-04T05:00:44.590Z,100467.72
2022-08-04T05:03:34.303Z,100486.75
2022-08-04T05:06:15.318Z,100486.09
2022-08-04T05:09:18.224Z,100475.00
2022-08-04T05:11:48.279Z,100484.56
2022-08-04T05:14:41.215Z,100486.47
2022-08-04T05:17:28.103Z,100482.25
2022-08-04T05:20:19.074Z,100487.63
2022-08-04T05:22:46.259Z,100491.28
2022-08-04T05:25:40.900Z,100506.81
2022-08-04T05:28:22.701Z,100499.38
2022-08-04T05:30:59.178Z,100497.00
2022-08-04T05:33:32.788Z,100505.88
2022-08-04T05:36:20.707Z,100507.59
2022-08-04T05:39:00.010Z,100508.31
2022-08-04T05:41:44.717Z,100513.44
2022-08-04T05:44:16.774Z,100516.38
2022-08-04T05:46:53.638Z,100506.25
2022-08-04T05:49:27.639Z,100508.63
2022-08-04T05:52:06.678Z,100521.81
2022-08-04T05:54:37.954Z,100517.66
2022-08-04T05:57:07.197Z,100508.75
2022-08-04T05:59:38.987Z,100515.13
2022-08-04T06:02:09.707Z,100520.31
2022-08-04T06:04:42.738Z,100519.06
2022-08-04T06:07:11.475Z,100523.81
2022-08-04T06:09:38.816Z,100527.94
2022-08-04T06:12:09.627Z,100517.75
2022-08-04T06:14:44.662Z,100534.25
2022-08-04T06:18:33.367Z,100518.19
2022-08-04T06:20:19.778Z,100525.81
2022-08-04T06:22:55.711Z,100512.47
2022-08-04T06:25:28.251Z,100526.78
2022-08-04T06:27:56.457Z,100511.66
2022-08-04T06:30:27.445Z,100527.34
2022-08-04T06:33:03.963Z,100517.22
2022-08-04T06:35:34.032Z,100506.59
2022-08-04T06:38:03.170Z,100519.84
2022-08-04T06:40:33.688Z,100522.00
2022-08-04T06:43:04.864Z,100514.81
2022-08-04T06:45:34.733Z,100529.97
2022-08-04T06:48:03.732Z,100533.81
2022-08-04T06:51:32.186Z,100539.34
2022-08-04T06:53:20.501Z,100530.41
2022-08-04T06:55:49.976Z,100523.31
2022-08-04T06:58:20.288Z,100530.03
2022-08-04T07:00:49.724Z,100523.41
2022-08-04T07:03:19.007Z,100531.28
2022-08-04T07:05:51.407Z,100523.66
2022-08-04T07:08:19.989Z,100537.94
2022-08-04T07:10:47.580Z,100523.72
2022-08-04T07:13:16.849Z,100524.84
2022-08-04T07:15:46.756Z,100538.09
2022-08-04T07:18:14.346Z,100522.41
2022-08-04T07:20:45.983Z,100531.81
2022-08-04T07:23:17.777Z,100516.16
2022-08-04T07:26:10.978Z,100514.34
2022-08-04T07:28:41.031Z,100517.28
2022-08-04T07:31:33.362Z,100515.31
2022-08-04T07:34:17.725Z,100517.19
2022-08-04T07:36:56.083Z,100509.25
2022-08-04T07:39:28.634Z,100526.78
2022-08-04T07:41:58.415Z,100517.25
2022-08-04T07:44:26.386Z,100525.16
2022-08-04T07:46:54.174Z,100516.31
2022-08-04T07:49:55.064Z,100520.88
2022-08-04T07:52:10.081Z,100522.78
2022-08-04T07:54:39.929Z,100508.53
2022-08-04T07:57:07.134Z,100517.63
2022-08-04T07:59:36.138Z,100507.31
2022-08-04T08:02:04.181Z,100520.47
2022-08-04T08:04:32.450Z,100510.72
2022-08-04T08:06:59.896Z,100516.47
2022-08-04T08:09:27.178Z,100521.88
2022-08-04T08:12:36.926Z,100520.00
2022-08-04T08:14:43.729Z,100507.91
2022-08-04T08:17:10.961Z,100510.22
2022-08-04T08:19:38.573Z,100496.56
2022-08-04T08:22:06.059Z,100505.34
2022-08-04T08:24:37.127Z,100516.66
2022-08-04T08:27:05.250Z,100510.91
2022-08-04T08:29:36.289Z,100514.88
2022-08-04T08:32:08.658Z,100517.06
2022-08-04T08:34:38.647Z,100518.59
2022-08-04T08:37:40.330Z,100518.34
2022-08-04T08:40:40.225Z,100511.72
2022-08-04T08:44:00.629Z,100508.69
2022-08-04T08:46:55.674Z,100509.22
2022-08-04T08:50:04.606Z,100502.81
2022-08-04T08:53:01.175Z,100512.44
2022-08-04T08:56:02.996Z,100513.34
2022-08-04T08:58:54.784Z,100504.75
2022-08-04T09:01:58.605Z,100508.13
2022-08-04T09:05:02.464Z,100510.94
2022-08-04T09:07:39.020Z,100501.06
2022-08-04T09:10:10.969Z,100502.69
2022-08-04T09:12:47.391Z,100502.41
2022-08-04T09:15:59.536Z,100486.78
2022-08-04T09:18:47.538Z,100486.78
2022-08-04T09:21:33.862Z,100493.91
2022-08-04T09:24:00.977Z,100488.06
2022-08-04T09:26:37.528Z,100496.63
2022-08-04T09:29:27.880Z,100484.09
2022-08-04T09:32:08.849Z,100472.72
2022-08-04T09:34:44.354Z,100479.78
2022-08-04T09:37:31.958Z,100472.38
2022-08-04T09:40:14.439Z,100474.41
2022-08-04T09:42:48.521Z,100476.19
2022-08-04T09:45:44.212Z,100468.06
2022-08-04T09:48:32.735Z,100467.94
2022-08-04T09:51:00.129Z,100461.00
2022-08-04T09:53:50.159Z,100461.72
2022-08-04T09:56:31.099Z,100485.06
2022-08-04T09:59:14.151Z,100476.06
2022-08-04T10:01:43.346Z,100466.25
2022-08-04T10:04:14.991Z,100445.72
2022-08-04T10:07:11.544Z,100457.94
2022-08-04T10:10:23.570Z,100464.72
2022-08-04T10:13:17.763Z,100449.69
2022-08-04T10:15:45.084Z,100451.03
2022-08-04T10:18:20.379Z,100451.50
2022-08-04T10:21:15.173Z,100459.19
2022-08-04T10:24:00.405Z,100452.38
2022-08-04T10:26:42.554Z,100437.66
2022-08-04T10:29:26.050Z,100442.88
2022-08-04T10:32:09.477Z,100441.75
2022-08-04T10:34:43.167Z,100443.66
2022-08-04T10:37:59.814Z,100436.31
2022-08-04T10:40:36.573Z,100450.84
2022-08-04T10:43:22.478Z,100427.91
2022-08-04T10:45:58.568Z,100449.94
2022-08-04T10:48:47.838Z,100451.13
2022-08-04T10:51:18.036Z,100443.06
2022-08-04T10:53:50.132Z,100426.59
2022-08-04T10:56:30.246Z,100431.69
2022-08-04T10:59:04.212Z,100422.88
2022-08-04T11:02:01.361Z,100425.56
2022-08-04T11:04:47.678Z,100430.03
2022-08-04T11:07:16.875Z,100423.19
2022-08-04T11:09:45.482Z,100420.53
2022-08-04T11:12:23.395Z,100425.91
2022-08-04T11:14:58.180Z,100420.06
2022-08-04T11:17:35.272Z,100424.03
2022-08-04T11:20:34.961Z,100407.41
2022-08-04T11:23:17.575Z,100424.03
2022-08-04T11:26:03.198Z,100415.25
2022-08-04T11:28:42.800Z,100416.03
2022-08-04T11:31:17.977Z,100406.88
2022-08-04T11:33:52.702Z,100422.69
2022-08-04T11:36:26.412Z,100424.31
2022-08-04T11:39:11.484Z,100408.81
2022-08-04T11:42:04.760Z,100412.41
2022-08-04T11:44:37.675Z,100416.59
2022-08-04T11:47:11.438Z,100403.25
2022-08-04T11:49:57.494Z,100403.78
2022-08-04T11:52:28.349Z,100399.09
2022-08-04T11:54:57.721Z,100404.78
2022-08-04T11:57:35.653Z,100400.72
2022-08-04T12:00:10.749Z,100401.25
2022-08-04T12:02:49.915Z,100406.53
2022-08-04T12:05:23.317Z,100400.47
2022-08-04T12:08:11.241Z,100401.59
2022-08-04T12:10:52.561Z,100401.75
2022-08-04T12:13:44.829Z,100399.53
2022-08-04T12:16:18.570Z,100378.50
2022-08-04T12:18:53.283Z,100400.16
2022-08-04T12:21:31.749Z,100396.56
2022-08-04T12:24:08.709Z,100398.78
2022-08-04T12:26:42.900Z,100401.84
2022-08-04T12:29:15.267Z,100399.91
2022-08-04T12:31:55.300Z,100385.75
2022-08-04T12:34:55.198Z,100398.97
2022-08-04T12:37:47.100Z,100389.34
2022-08-04T12:40:30.047Z,100379.09
2022-08-04T12:43:22.833Z,100397.69
2022-08-04T12:45:53.237Z,100389.91
2022-08-04T12:48:24.220Z,100388.25
2022-08-04T12:50:56.941Z,100391.84
2022-08-04T12:53:32.684Z,100387.97
2022-08-04T12:56:02.497Z,100369.06
2022-08-04T12:58:44.097Z,100393.53
2022-08-04T13:02:08.773Z,100369.66
2022-08-04T13:04:15.575Z,100364.06
2022-08-04T13:06:44.678Z,100374.63
2022-08-04T13:09:21.085Z,100376.03
2022-08-04T13:11:52.910Z,100385.38
2022-08-04T13:14:27.673Z,100373.28
2022-08-04T13:17:02.753Z,100370.50
2022-08-04T13:19:31.587Z,100371.03
2022-08-04T13:22:09.372Z,100356.88
2022-08-04T13:24:56.295Z,100357.44
2022-08-04T13:27:25.887Z,100352.16
2022-08-04T13:30:00.043Z,100339.41
2022-08-04T13:32:32.414Z,100361.03
2022-08-04T13:35:01.987Z,100336.94
2022-08-04T13:37:36.700Z,100347.44
2022-08-04T13:40:06.594Z,100322.22
2022-08-04T13:42:35.714Z,100351.06
2022-08-04T13:45:06.381Z,100344.13
2022-08-04T13:47:38.779Z,100343.56
2022-08-04T13:50:32.382Z,100346.34
2022-08-04T13:53:02.167Z,100337.19
2022-08-04T13:55:34.332Z,100348.00
2022-08-04T13:58:14.565Z,100333.28
2022-08-04T14:00:46.943Z,100327.75
2022-08-04T14:03:24.743Z,100330.25
2022-08-04T14:06:18.005Z,100329.69
2022-08-04T14:09:10.516Z,100335.25
2022-08-04T14:12:06.143Z,100333.56
2022-08-04T14:14:33.368Z,100333.88
2022-08-04T14:17:03.574Z,100322.19
2022-08-04T14:19:46.253Z,100327.75
2022-08-04T14:22:36.045Z,100313.59
2022-08-04T14:25:15.876Z,100304.19
2022-08-04T14:27:51.102Z,100299.44
2022-08-04T14:30:36.333Z,100312.50
2022-08-04T14:34:02.283Z,100304.47
2022-08-04T14:35:59.640Z,100297.22
2022-08-04T14:38:45.505Z,100304.47
2022-08-04T14:41:13.811Z,100294.19
2022-08-04T14:43:46.783Z,100306.09
2022-08-04T14:46:14.708Z,100288.34
2022-08-04T14:49:01.229Z,100278.09
2022-08-04T14:51:36.719Z,100277.81
2022-08-04T14:54:08.923Z,100287.25
2022-08-04T14:56:47.851Z,100300.00
2022-08-04T14:59:15.126Z,100293.34
2022-08-04T15:01:44.797Z,100296.13
2022-08-04T15:04:27.374Z,100289.44
2022-08-04T15:06:54.819Z,100297.22
2022-08-04T15:09:22.762Z,100286.13
2022-08-04T15:11:50.086Z,100288.34
2022-08-04T15:14:36.894Z,100282.25
2022-08-04T15:17:12.108Z,100266.72
2022-08-04T15:19:56.316Z,100280.03
2022-08-04T15:22:24.038Z,100290.03
2022-08-04T15:24:54.976Z,100285.84
2022-08-04T15:27:27.402Z,100288.91
2022-08-04T15:30:01.923Z,100296.41
2022-08-04T15:32:33.234Z,100304.44
2022-08-04T15:35:08.713Z,100276.94
2022-08-04T15:38:02.849Z,100281.66
2022-08-04T15:40:42.993Z,100278.88
2022-08-04T15:43:41.434Z,100292.25
2022-08-04T15:46:44.219Z,100275.63
2022-08-04T15:48:56.345Z,100288.63
2022-08-04T15:51:31.828Z,100274.47
2022-08-04T15:54:02.346Z,100289.22
2022-08-04T15:56:31.377Z,100285.03
2022-08-04T15:58:59.094Z,100277.25
2022-08-04T16:01:27.995Z,100282.78
2022-08-04T16:03:59.873Z,100285.56
2022-08-04T16:06:29.669Z,100286.97
2022-08-04T16:08:59.792Z,100274.72
2022-08-04T16:11:40.499Z,100275.84
2022-08-04T16:14:09.575Z,100269.47
2022-08-04T16:16:36.684Z,100280.00
2022-08-04T16:19:13.794Z,100273.91
2022-08-04T16:21:50.012Z,100270.31
2022-08-04T16:24:17.200Z,100275.00
2022-08-04T16:26:54.361Z,100267.78
2022-08-04T16:29:23.579Z,100268.91
2022-08-04T16:32:06.472Z,100280.28
2022-08-04T16:34:49.714Z,100272.22
2022-08-04T16:37:20.352Z,100274.44
2022-08-04T16:39:50.533Z,100271.94
2022-08-04T16:42:27.889Z,100286.34
2022-08-04T16:45:07.295Z,100280.50
2022-08-04T16:47:49.879Z,100290.78
2022-08-04T16:50:22.452Z,100275.22
2022-08-04T16:52:52.483Z,100281.88
2022-08-04T16:55:25.117Z,100253.28
2022-08-04T16:57:54.649Z,100257.13
2022-08-04T17:00:31.404Z,100254.63
2022-08-04T17:03:01.559Z,100266.81
2022-08-04T17:05:39.029Z,100262.94
2022-08-04T17:10:56.390Z,100270.97
2022-08-04T17:14:02.502Z,100267.88
2022-08-04T17:16:18.312Z,100268.13
2022-08-04T17:18:48.971Z,100271.41
2022-08-04T17:21:20.063Z,100258.41
2022-08-04T17:24:15.997Z,100253.59
2022-08-04T17:26:41.678Z,100271.69
2022-08-04T17:29:12.479Z,100254.16
2022-08-04T17:31:47.992Z,100248.00
2022-08-04T17:34:19.507Z,100261.25
2022-08-04T17:36:48.258Z,100263.09
2022-08-04T17:39:21.562Z,100242.25
2022-08-04T17:41:55.075Z,100251.41
2022-08-04T17:44:36.827Z,100261.31
2022-08-04T17:47:19.619Z,100265.47
2022-08-04T17:49:53.287Z,100272.59
2022-08-04T17:52:41.225Z,100249.25
2022-08-04T17:55:16.548Z,100246.41
2022-08-04T17:57:52.412Z,100255.56
2022-08-04T18:00:20.334Z,100245.78
2022-08-04T18:02:54.852Z,100261.88
2022-08-04T18:05:50.315Z,100256.03
2022-08-04T18:08:37.932Z,100273.97
2022-08-04T18:11:05.543Z,100270.84
2022-08-04T18:13:42.750Z,100269.44
2022-08-04T18:16:22.574Z,100264.31
2022-08-04T18:19:11.099Z,100252.31
2022-08-04T18:21:46.059Z,100257.56
2022-08-04T18:24:34.727Z,100274.72
2022-08-04T18:27:06.446Z,100266.66
2022-08-04T18:29:39.159Z,100270.75
2022-08-04T18:32:08.944Z,100267.94
2022-08-04T18:34:40.910Z,100283.38
2022-08-04T18:38:03.680Z,100253.44
2022-08-04T18:40:28.152Z,100271.88
2022-08-04T18:42:59.976Z,100276.78
2022-08-04T18:45:33.793Z,100275.88
2022-08-04T18:51:09.693Z,100277.75
2022-08-04T18:53:37.979Z,100284.31
2022-08-04T18:56:19.936Z,100284.25
2022-08-04T18:58:59.856Z,100273.06
2022-08-04T19:01:29.662Z,100286.53
2022-08-04T19:04:33.456Z,100267.84
2022-08-04T19:07:29.653Z,100287.47
2022-08-04T19:09:54.024Z,100291.25
2022-08-04T19:12:27.196Z,100279.81
2022-08-04T19:14:58.821Z,100287.06
2022-08-04T19:17:52.760Z,100293.59
2022-08-04T19:20:24.364Z,100290.63
2022-08-04T19:24:26.875Z,100282.97
2022-08-04T19:25:58.728Z,100301.00
2022-08-04T19:28:35.505Z,100282.06
2022-08-04T19:31:09.393Z,100296.56
2022-08-04T19:33:58.442Z,100297.06
2022-08-04T19:36:28.741Z,100306.19
2022-08-04T19:39:00.200Z,100297.81
2022-08-04T19:41:29.618Z,100296.19
2022-08-04T19:43:58.630Z,100314.50
2022-08-04T19:46:28.606Z,100312.31
2022-08-04T19:48:59.730Z,100317.31
2022-08-04T19:51:32.998Z,100320.31
2022-08-04T19:54:04.041Z,100314.56
2022-08-04T19:56:40.261Z,100308.50
2022-08-04T19:59:11.655Z,100317.97
2022-08-04T20:01:44.641Z,100315.47
2022-08-04T20:04:14.587Z,100300.06
2022-08-04T20:06:42.893Z,100315.00
2022-08-04T20:09:26.351Z,100297.63
2022-08-04T20:11:55.910Z,100315.31
2022-08-04T20:14:32.854Z,100303.72
2022-08-04T20:17:09.974Z,100302.78
2022-08-04T20:19:41.626Z,100291.19
2022-08-04T20:22:51.848Z,100310.00
2022-08-04T20:25:27.314Z,100299.09
2022-08-04T20:28:00.585Z,100312.03
2022-08-04T20:30:30.267Z,100321.97
2022-08-04T20:32:57.956Z,100308.56
2022-08-04T20:35:26.905Z,100303.75
2022-08-04T20:38:00.820Z,100297.44
2022-08-04T20:40:30.144Z,100303.19
2022-08-04T20:42:59.089Z,100313.94
2022-08-04T20:45:55.600Z,100312.13
2022-08-04T20:48:14.289Z,100306.44
2022-08-04T20:50:44.945Z,100301.75
2022-08-04T20:53:16.510Z,100321.13
2022-08-04T20:55:54.751Z,100313.13
2022-08-04T20:58:27.667Z,100297.59
2022-08-04T21:00:56.007Z,100318.84
2022-08-04T21:03:49.701Z,100314.19
2022-08-04T21:06:11.872Z,100316.47
2022-08-04T21:08:39.096Z,100301.03
2022-08-04T21:11:06.831Z,100303.91
2022-08-04T21:13:44.458Z,100324.84
2022-08-04T21:16:26.100Z,100318.25
2022-08-04T21:19:13.165Z,100306.28
2022-08-04T21:21:42.262Z,100318.50
2022-08-04T21:24:10.283Z,100314.25
2022-08-04T21:26:42.869Z,100315.69
2022-08-04T21:29:13.833Z,100309.69
2022-08-04T21:31:51.010Z,100317.84
2022-08-04T21:34:38.297Z,100327.66
2022-08-04T21:37:11.420Z,100318.84
2022-08-04T21:39:50.192Z,100317.88
2022-08-04T21:42:28.152Z,100300.28
2022-08-04T21:44:58.151Z,100320.03
2022-08-04T21:47:25.611Z,100328.78
2022-08-04T21:49:56.650Z,100314.63
2022-08-04T21:52:25.352Z,100322.03
2022-08-04T21:54:54.711Z,100309.13
2022-08-04T21:57:25.132Z,100315.09
2022-08-04T21:59:53.100Z,100314.13
2022-08-04T22:02:20.384Z,100303.00
2022-08-04T22:04:48.959Z,100317.25
2022-08-04T22:07:17.014Z,100318.69
2022-08-04T22:09:45.644Z,100308.03
2022-08-04T22:12:29.866Z,100317.81
2022-08-04T22:14:59.765Z,100297.75
2022-08-04T22:17:29.450Z,100294.81
2022-08-04T22:20:04.493Z,100311.56
2022-08-04T22:22:34.717Z,100314.03
2022-08-04T22:25:12.400Z,100310.75
2022-08-04T22:28:00.959Z,100313.72
2022-08-04T22:30:33.185Z,100304.56
2022-08-04T22:33:07.524Z,100299.84
2022-08-04T22:35:44.185Z,100318.91
2022-08-04T22:38:24.004Z,100318.06
2022-08-04T22:41:02.440Z,100301.47
2022-08-04T22:43:34.086Z,100311.56
2022-08-04T22:46:05.452Z,100310.78
2022-08-04T22:48:36.379Z,100299.25
2022-08-04T22:51:05.984Z,100296.22
2022-08-04T22:53:35.888Z,100312.91
2022-08-04T22:56:10.734Z,100310.56
2022-08-04T22:58:51.235Z,100317.44
2022-08-04T23:01:18.887Z,100311.00
2022-08-04T23:03:50.936Z,100308.84
2022-08-04T23:06:24.973Z,100299.56
2022-08-04T23:08:52.749Z,100315.03
2022-08-04T23:11:19.928Z,100303.88
2022-08-04T23:13:48.927Z,100307.41
2022-08-04T23:16:17.077Z,100307.69
2022-08-04T23:18:49.010Z,100295.53
2022-08-04T23:21:24.205Z,100303.72
2022-08-04T23:24:00.979Z,100290.47
2022-08-04T23:26:31.548Z,100284.81
2022-08-04T23:28:59.200Z,100288.41
2022-08-04T23:31:40.572Z,100285.88
2022-08-04T23:34:09.397Z,100283.59
2022-08-04T23:36:40.480Z,100296.84
2022-08-04T23:39:08.007Z,100297.06
2022-08-04T23:41:53.791Z,100296.25
2022-08-04T23:44:25.152Z,100282.94
2022-08-04T23:47:01.256Z,100271.56
2022-08-04T23:49:43.423Z,100286.84
2022-08-04T23:52:27.637Z,100276.16
2022-08-04T23:55:01.142Z,100261.44
2022-08-04T23:57:31.075Z,100267.16
